Farmersville's Hourly Summary for Tuesday, March 14, 2017
Hour Temp
(f)
RH
(%)
Solar Rad.
(MJ/m2)
Rainfall
(in)
Wind
(mph)
3/14/2017 12:00 AM 41 51 0 0 0.56
3/14/2017 1:00 AM 39 59 0 0 0.01
3/14/2017 2:00 AM 37 63 0 0 0
3/14/2017 3:00 AM 36 62 0 0 0.36
3/14/2017 4:00 AM 36 63 0 0 0
3/14/2017 5:00 AM 33 72 0 0 0
3/14/2017 6:00 AM 33 78 0 0 0
3/14/2017 7:00 AM 33 76 0 0 0
3/14/2017 8:00 AM 33 75 0.03 0 0
3/14/2017 9:00 AM 38 58 0.43 0 0.07
3/14/2017 10:00 AM 43 51 1.13 0 2.02
3/14/2017 11:00 AM 45 47 1.8 0 3.43
3/14/2017 12:00 PM 48 43 2.36 0 1.62
3/14/2017 1:00 PM 51 40 2.71 0 1.65
3/14/2017 2:00 PM 53 39 2.86 0 3.29
3/14/2017 3:00 PM 55 36 2.72 0 2.93
3/14/2017 4:00 PM 57 35 2.45 0 2.38
3/14/2017 5:00 PM 59 36 1.64 0 2.92
3/14/2017 6:00 PM 60 33 1.23 0 0.73
3/14/2017 7:00 PM 60 34 0.49 0 0.55
3/14/2017 8:00 PM 55 39 0.03 0 0
3/14/2017 9:00 PM 53 45 0 0 2.44
3/14/2017 10:00 PM 50 51 0 0 0.14
3/14/2017 11:00 PM 50 53 0 0 0.45
Data Summary 45 51 19.88 0.00 1.06